Time;durP1;ratioP1;P1;durP2;ratioP2;P2;SDS_P1;SDS_P2;PMS_P1;PMS_P2;Temp;Humidity;BMP_temperature;BMP_pressure;BME280_temperature;BME280_humidity;BME280_pressure;Samples;Min_cycle;Max_cycle;Signal;HPM_P1;HPM_P2
2023/10/28 00:00:01;;;;;;;21.95;12.88;;;9.30;99.90;;;;;;5000850;28;20042;-70
2023/10/28 00:02:30;;;;;;;28.83;13.10;;;9.30;99.90;;;;;;4994326;28;20608;-69
2023/10/28 00:04:58;;;;;;;20.75;11.07;;;9.30;99.90;;;;;;4998252;28;20061;-68
2023/10/28 00:07:25;;;;;;;20.50;10.13;;;9.30;99.90;;;;;;5006589;28;20783;-70
2023/10/28 00:09:52;;;;;;;20.42;11.32;;;9.20;99.90;;;;;;4994487;28;20050;-68
2023/10/28 00:12:21;;;;;;;19.33;11.52;;;9.20;99.90;;;;;;4990494;28;20048;-70
2023/10/28 00:14:48;;;;;;;23.02;12.48;;;9.20;99.90;;;;;;4991199;28;20054;-70
2023/10/28 00:17:15;;;;;;;29.35;13.52;;;9.20;99.90;;;;;;4989385;28;20034;-70
2023/10/28 00:19:42;;;;;;;28.02;12.90;;;9.10;99.90;;;;;;4999435;28;20046;-70
2023/10/28 00:22:10;;;;;;;20.90;10.93;;;9.10;99.90;;;;;;4994190;28;20145;-68
2023/10/28 00:24:37;;;;;;;24.58;11.50;;;9.20;99.90;;;;;;4993691;28;20111;-70
2023/10/28 00:27:04;;;;;;;25.33;11.68;;;9.20;99.90;;;;;;4989676;28;20054;-70
2023/10/28 00:29:31;;;;;;;17.92;11.27;;;9.20;99.90;;;;;;4996690;28;20429;-70
2023/10/28 00:31:58;;;;;;;18.63;11.82;;;9.30;99.90;;;;;;4995510;28;20350;-69
2023/10/28 00:34:25;;;;;;;25.42;12.63;;;9.30;99.90;;;;;;4990135;28;20041;-70
2023/10/28 00:36:52;;;;;;;25.30;13.00;;;9.30;99.90;;;;;;4995372;28;20033;-70
2023/10/28 00:39:19;;;;;;;19.20;11.93;;;9.40;99.90;;;;;;4988142;28;20527;-70
2023/10/28 00:41:47;;;;;;;17.77;11.88;;;9.40;99.90;;;;;;4990924;28;20048;-69
2023/10/28 00:44:15;;;;;;;21.52;11.77;;;9.40;99.90;;;;;;4992099;28;20050;-69
2023/10/28 00:46:43;;;;;;;16.80;10.98;;;9.50;99.90;;;;;;4993722;28;20052;-69
2023/10/28 00:49:10;;;;;;;23.73;11.68;;;9.50;99.90;;;;;;4996631;28;20625;-70
2023/10/28 00:51:38;;;;;;;21.27;11.15;;;9.50;99.90;;;;;;5017028;28;20042;-69
2023/10/28 00:54:06;;;;;;;18.38;11.40;;;9.50;99.90;;;;;;4984943;28;20128;-71
2023/10/28 00:56:34;;;;;;;19.00;10.93;;;9.50;99.90;;;;;;4998277;28;20046;-69
2023/10/28 00:59:01;;;;;;;17.80;11.05;;;9.50;99.90;;;;;;4997281;28;20047;-69
2023/10/28 01:01:28;;;;;;;15.00;9.85;;;9.40;99.90;;;;;;4992737;28;20826;-70
2023/10/28 01:03:56;;;;;;;22.48;11.70;;;9.40;99.90;;;;;;4994162;28;20664;-68
2023/10/28 01:06:22;;;;;;;25.52;11.98;;;9.30;99.90;;;;;;4996731;28;20053;-70
2023/10/28 01:08:49;;;;;;;20.67;12.85;;;9.20;99.90;;;;;;5000309;28;20099;-70
2023/10/28 01:11:16;;;;;;;24.63;13.95;;;9.30;99.90;;;;;;4992767;28;20050;-70
2023/10/28 01:13:43;;;;;;;19.65;14.63;;;9.20;99.90;;;;;;4997732;28;20034;-69
2023/10/28 01:16:11;;;;;;;19.13;15.85;;;9.20;99.90;;;;;;4991480;28;20412;-70
2023/10/28 01:18:37;;;;;;;19.05;14.15;;;9.10;99.90;;;;;;4993324;28;20072;-70
2023/10/28 01:21:09;;;;;;;27.85;15.60;;;9.20;99.90;;;;;;4996092;28;20056;-69
2023/10/28 01:23:36;;;;;;;15.63;14.15;;;9.10;99.90;;;;;;4998788;28;20851;-70
2023/10/28 01:26:05;;;;;;;23.67;14.30;;;9.10;99.90;;;;;;4992730;28;20053;-70
2023/10/28 01:28:33;;;;;;;17.35;14.65;;;9.20;99.90;;;;;;4996431;28;20144;-70
2023/10/28 01:31:01;;;;;;;21.60;14.70;;;9.10;99.90;;;;;;4994328;28;20100;-68
2023/10/28 01:33:28;;;;;;;21.42;15.35;;;9.20;99.90;;;;;;4992650;28;20060;-69
2023/10/28 01:35:55;;;;;;;24.05;14.88;;;9.10;99.90;;;;;;5008498;28;20113;-69
2023/10/28 01:38:23;;;;;;;18.45;14.73;;;9.20;99.90;;;;;;5015807;28;20044;-69
2023/10/28 01:40:51;;;;;;;21.58;13.95;;;9.10;99.90;;;;;;5011658;28;20695;-70
2023/10/28 01:43:19;;;;;;;16.88;14.35;;;9.10;99.90;;;;;;4992479;28;20056;-70
2023/10/28 01:45:46;;;;;;;22.85;13.90;;;9.20;99.90;;;;;;4990808;28;20049;-69
2023/10/28 01:48:14;;;;;;;20.75;13.32;;;9.00;99.90;;;;;;4992669;28;20516;-70
2023/10/28 01:50:41;;;;;;;28.35;13.75;;;9.00;99.90;;;;;;5011901;28;20045;-69
2023/10/28 01:53:08;;;;;;;29.77;13.80;;;9.00;99.90;;;;;;4990770;28;20049;-69
2023/10/28 01:55:35;;;;;;;22.33;14.18;;;8.90;99.90;;;;;;4981843;28;20052;-69
2023/10/28 01:58:02;;;;;;;25.85;13.55;;;9.00;99.90;;;;;;4986092;28;20046;-71
2023/10/28 02:00:30;;;;;;;20.77;14.32;;;9.10;99.90;;;;;;4981619;28;20536;-69
2023/10/28 02:03:00;;;;;;;17.15;12.82;;;9.10;99.90;;;;;;5017597;28;20042;-69
2023/10/28 02:05:27;;;;;;;18.40;12.77;;;8.90;99.90;;;;;;4983108;28;20054;-69
2023/10/28 02:07:54;;;;;;;22.80;13.63;;;8.90;99.90;;;;;;4987929;28;20142;-71
2023/10/28 02:10:21;;;;;;;22.77;13.02;;;8.80;99.90;;;;;;4983169;28;20136;-69
2023/10/28 02:12:48;;;;;;;20.02;13.18;;;8.80;99.90;;;;;;4990995;28;20049;-70
2023/10/28 02:15:17;;;;;;;22.35;13.43;;;8.90;99.90;;;;;;4986856;28;20054;-68
2023/10/28 02:17:46;;;;;;;20.27;13.20;;;8.90;99.90;;;;;;4986572;28;20069;-70
2023/10/28 02:20:13;;;;;;;18.85;13.25;;;8.90;99.90;;;;;;4985161;28;20039;-68
2023/10/28 02:22:41;;;;;;;23.73;14.77;;;9.00;99.90;;;;;;4987118;28;20056;-69
2023/10/28 02:25:09;;;;;;;23.38;14.15;;;9.10;99.90;;;;;;4983756;28;20042;-70
2023/10/28 02:27:37;;;;;;;22.55;14.50;;;9.10;99.90;;;;;;4984148;28;20736;-70
2023/10/28 02:30:09;;;;;;;26.48;14.70;;;9.20;99.90;;;;;;4982131;28;20522;-70
2023/10/28 02:32:36;;;;;;;22.92;15.15;;;9.10;99.90;;;;;;4983463;28;20337;-69
2023/10/28 02:35:04;;;;;;;27.85;14.80;;;9.30;99.90;;;;;;4996555;28;20046;-69
2023/10/28 02:37:31;;;;;;;26.52;13.77;;;9.30;99.90;;;;;;4988340;28;20148;-69
2023/10/28 02:39:58;;;;;;;22.15;14.65;;;9.30;99.90;;;;;;4987618;28;20633;-69
2023/10/28 02:42:25;;;;;;;22.00;16.05;;;9.20;99.90;;;;;;4982537;28;20689;-69
2023/10/28 02:44:52;;;;;;;27.58;16.65;;;9.30;99.90;;;;;;4986505;28;20521;-67
2023/10/28 02:47:19;;;;;;;26.58;15.73;;;9.30;99.90;;;;;;4999690;28;20655;-68
2023/10/28 02:49:45;;;;;;;24.23;15.05;;;9.50;99.90;;;;;;4994705;28;20362;-69
2023/10/28 02:52:12;;;;;;;29.75;16.30;;;9.50;99.90;;;;;;4980032;28;20589;-70
2023/10/28 02:54:39;;;;;;;21.23;15.27;;;9.40;99.90;;;;;;4985291;28;20069;-70
2023/10/28 02:57:07;;;;;;;22.67;15.10;;;9.30;99.90;;;;;;4983196;28;20042;-70
2023/10/28 02:59:34;;;;;;;19.45;14.90;;;9.40;99.90;;;;;;4985584;28;20095;-70
2023/10/28 03:02:00;;;;;;;19.73;15.10;;;9.40;99.90;;;;;;4988618;28;20137;-68
2023/10/28 03:04:27;;;;;;;24.35;16.63;;;9.40;99.90;;;;;;4986955;28;20046;-70
2023/10/28 03:06:54;;;;;;;20.45;15.13;;;9.40;99.90;;;;;;4989951;28;20045;-69
2023/10/28 03:09:22;;;;;;;22.85;15.93;;;9.40;99.90;;;;;;4979055;28;20166;-68
2023/10/28 03:11:48;;;;;;;19.80;15.88;;;9.40;99.90;;;;;;4982525;28;20531;-70
2023/10/28 03:14:15;;;;;;;25.50;16.98;;;9.40;99.90;;;;;;4988649;28;20042;-68
2023/10/28 03:16:44;;;;;;;19.55;14.55;;;9.40;99.90;;;;;;4986308;28;20064;-69
2023/10/28 03:19:11;;;;;;;22.65;14.45;;;9.30;99.90;;;;;;4987530;28;20042;-69
2023/10/28 03:21:39;;;;;;;18.42;14.35;;;9.40;99.90;;;;;;4987528;28;20046;-69
2023/10/28 03:24:06;;;;;;;17.15;13.93;;;9.40;99.90;;;;;;4991432;28;20046;-69
2023/10/28 03:26:33;;;;;;;17.05;13.05;;;9.40;99.90;;;;;;4971664;28;20053;-69
2023/10/28 03:29:00;;;;;;;27.85;15.15;;;9.30;99.90;;;;;;4983151;28;20236;-68
2023/10/28 03:31:28;;;;;;;17.90;13.18;;;9.20;99.90;;;;;;4966353;28;20050;-70
2023/10/28 03:33:55;;;;;;;17.08;12.57;;;9.20;99.90;;;;;;5020474;28;20503;-69
2023/10/28 03:36:24;;;;;;;13.88;12.40;;;9.30;99.90;;;;;;4982658;28;20069;-69
2023/10/28 03:38:51;;;;;;;21.50;13.45;;;9.20;99.90;;;;;;4991449;28;20047;-69
2023/10/28 03:41:19;;;;;;;27.40;12.77;;;9.30;99.90;;;;;;4978357;28;20041;-69
2023/10/28 03:43:45;;;;;;;17.90;12.88;;;9.30;99.90;;;;;;4987189;28;20516;-70
2023/10/28 03:46:18;;;;;;;24.35;13.35;;;9.40;99.90;;;;;;4978244;28;20145;-69
2023/10/28 03:48:45;;;;;;;22.88;14.75;;;9.40;99.90;;;;;;4983463;28;20746;-69
2023/10/28 03:51:15;;;;;;;18.67;12.48;;;9.40;99.90;;;;;;4981645;28;20049;-68
2023/10/28 03:53:42;;;;;;;18.30;13.23;;;9.50;99.90;;;;;;4985268;28;20053;-69
2023/10/28 03:56:09;;;;;;;27.65;13.68;;;9.50;99.90;;;;;;5000164;28;20037;-70
2023/10/28 03:58:36;;;;;;;18.45;13.25;;;9.50;99.90;;;;;;4985678;28;20038;-70
2023/10/28 04:01:04;;;;;;;18.75;12.82;;;9.60;99.90;;;;;;4983061;28;20066;-70
2023/10/28 04:03:33;;;;;;;28.77;14.20;;;9.60;99.90;;;;;;4988187;28;20061;-69
2023/10/28 04:06:00;;;;;;;22.02;13.27;;;9.70;99.90;;;;;;4983566;28;20038;-69
2023/10/28 04:08:29;;;;;;;23.88;13.15;;;9.60;99.90;;;;;;4988828;28;20420;-69
2023/10/28 04:10:57;;;;;;;14.88;13.40;;;9.60;99.90;;;;;;4981275;28;20043;-69
2023/10/28 04:13:24;;;;;;;18.17;13.38;;;9.60;99.90;;;;;;4986687;28;20502;-68
2023/10/28 04:15:51;;;;;;;21.00;12.40;;;9.60;99.90;;;;;;4981136;28;20043;-70
2023/10/28 04:18:17;;;;;;;22.70;13.27;;;9.50;99.90;;;;;;4990557;28;20463;-69
2023/10/28 04:20:45;;;;;;;21.05;12.90;;;9.60;99.90;;;;;;4984332;28;20559;-68
2023/10/28 04:23:12;;;;;;;22.80;11.63;;;9.50;99.90;;;;;;4988709;28;20097;-70
2023/10/28 04:25:40;;;;;;;17.98;12.68;;;9.40;99.90;;;;;;4987788;28;20056;-68
2023/10/28 04:28:07;;;;;;;19.05;12.55;;;9.40;99.90;;;;;;4987375;28;20046;-68
2023/10/28 04:30:34;;;;;;;18.88;13.38;;;9.30;99.90;;;;;;4977648;28;20071;-69
2023/10/28 04:33:00;;;;;;;22.90;13.43;;;9.30;99.90;;;;;;4990244;28;20097;-69
2023/10/28 04:35:28;;;;;;;19.35;13.05;;;9.50;99.90;;;;;;4986701;28;20045;-68
2023/10/28 04:37:55;;;;;;;25.42;12.38;;;9.50;99.90;;;;;;4991278;28;20238;-69
2023/10/28 04:40:24;;;;;;;22.70;12.13;;;9.50;99.90;;;;;;4983635;28;20132;-68
2023/10/28 04:42:52;;;;;;;22.10;12.35;;;9.40;99.90;;;;;;4996959;28;20143;-70
2023/10/28 04:45:21;;;;;;;23.60;11.95;;;9.50;99.90;;;;;;4992956;28;20108;-69
2023/10/28 04:47:48;;;;;;;20.55;11.57;;;9.50;99.90;;;;;;4996995;28;20174;-69
2023/10/28 04:50:16;;;;;;;26.85;12.48;;;9.40;99.90;;;;;;4991581;28;20046;-69
2023/10/28 04:52:44;;;;;;;21.83;13.60;;;9.50;99.90;;;;;;4993397;28;20112;-68
2023/10/28 04:55:12;;;;;;;18.63;12.80;;;9.50;99.90;;;;;;4997179;28;20041;-68
2023/10/28 04:57:40;;;;;;;21.15;13.20;;;9.50;99.90;;;;;;4991961;28;20527;-70
2023/10/28 05:00:08;;;;;;;25.75;13.52;;;9.50;99.90;;;;;;4992409;28;20048;-69
2023/10/28 05:02:34;;;;;;;27.23;14.52;;;9.50;99.90;;;;;;4991238;28;20052;-68
2023/10/28 05:05:01;;;;;;;19.10;12.95;;;9.50;99.90;;;;;;4999467;28;20133;-69
2023/10/28 05:07:28;;;;;;;18.58;13.35;;;9.50;99.90;;;;;;4991327;28;20038;-71
2023/10/28 05:09:55;;;;;;;26.23;13.63;;;9.50;99.90;;;;;;4992377;28;20076;-69
2023/10/28 05:12:22;;;;;;;19.02;13.63;;;9.60;99.90;;;;;;4989462;28;20100;-68
2023/10/28 05:14:48;;;;;;;22.23;14.50;;;9.60;99.90;;;;;;4994021;28;20058;-70
2023/10/28 05:17:16;;;;;;;16.15;14.45;;;9.60;99.90;;;;;;4992986;28;20038;-70
2023/10/28 05:19:43;;;;;;;19.77;14.00;;;9.50;99.90;;;;;;4991255;28;20049;-70
2023/10/28 05:22:10;;;;;;;14.93;13.30;;;9.50;99.90;;;;;;4990342;28;20058;-70
2023/10/28 05:24:37;;;;;;;23.75;14.48;;;9.50;99.90;;;;;;5007791;28;20042;-69
2023/10/28 05:27:04;;;;;;;16.25;14.50;;;9.60;99.90;;;;;;4991742;28;20037;-69
2023/10/28 05:29:31;;;;;;;17.33;15.15;;;9.50;99.90;;;;;;4994424;28;20085;-70
2023/10/28 05:31:58;;;;;;;25.02;15.50;;;9.50;99.90;;;;;;4979252;28;20045;-70
2023/10/28 05:34:25;;;;;;;19.95;14.80;;;9.50;99.90;;;;;;4994590;28;20050;-69
2023/10/28 05:36:52;;;;;;;17.45;14.70;;;9.50;99.90;;;;;;4992362;28;20515;-69
2023/10/28 05:39:20;;;;;;;19.85;16.08;;;9.50;99.90;;;;;;5003138;28;20037;-70
2023/10/28 05:41:48;;;;;;;24.30;16.75;;;9.60;99.90;;;;;;4995532;28;20037;-68
2023/10/28 05:44:15;;;;;;;18.42;16.55;;;9.60;99.90;;;;;;5005069;28;20045;-69
2023/10/28 05:46:42;;;;;;;19.88;15.90;;;9.60;99.90;;;;;;4993001;28;20077;-68
2023/10/28 05:49:12;;;;;;;18.77;16.70;;;9.60;99.90;;;;;;5011005;28;20037;-67
2023/10/28 05:51:39;;;;;;;23.15;15.77;;;9.60;99.90;;;;;;5018018;28;20037;-69
2023/10/28 05:54:06;;;;;;;26.42;16.00;;;9.60;99.90;;;;;;5025993;28;20091;-67
2023/10/28 05:56:33;;;;;;;26.38;16.70;;;9.60;99.90;;;;;;4994025;28;20041;-69
2023/10/28 05:59:00;;;;;;;22.35;17.67;;;9.50;99.90;;;;;;5003218;28;20136;-69
2023/10/28 06:01:27;;;;;;;25.13;18.23;;;9.50;99.90;;;;;;5004608;28;20524;-68
2023/10/28 06:03:54;;;;;;;23.63;19.33;;;9.60;99.90;;;;;;5001988;28;20049;-69
2023/10/28 06:06:21;;;;;;;24.98;18.65;;;9.50;99.90;;;;;;4991420;28;20061;-68
2023/10/28 06:08:48;;;;;;;25.73;18.95;;;9.60;99.90;;;;;;4996791;28;20050;-68
2023/10/28 06:11:15;;;;;;;24.77;18.58;;;9.60;99.90;;;;;;4991584;28;20045;-67
2023/10/28 06:13:43;;;;;;;24.17;18.80;;;9.60;99.90;;;;;;4990655;28;20491;-67
2023/10/28 06:16:10;;;;;;;24.65;17.85;;;9.60;99.90;;;;;;4999210;28;20090;-68
2023/10/28 06:18:37;;;;;;;18.33;16.33;;;9.50;99.90;;;;;;5019443;28;20181;-68
2023/10/28 06:21:05;;;;;;;21.40;15.55;;;9.50;99.90;;;;;;4995949;28;20045;-67
2023/10/28 06:23:32;;;;;;;23.17;15.07;;;9.40;99.90;;;;;;4989050;28;20046;-68
2023/10/28 06:25:59;;;;;;;22.45;15.40;;;9.40;99.90;;;;;;4989086;28;20091;-67
2023/10/28 06:28:27;;;;;;;19.13;14.25;;;9.40;99.90;;;;;;4990515;28;20716;-69
2023/10/28 06:30:54;;;;;;;26.77;18.05;;;9.30;99.90;;;;;;4992863;28;20181;-68
2023/10/28 06:33:22;;;;;;;19.60;11.65;;;9.30;99.90;;;;;;4988405;28;20122;-68
2023/10/28 06:35:49;;;;;;;20.35;13.60;;;9.40;99.90;;;;;;4989823;28;20928;-69
2023/10/28 06:38:17;;;;;;;17.45;12.75;;;9.30;99.90;;;;;;4990657;28;20046;-67
2023/10/28 06:40:47;;;;;;;19.80;14.48;;;9.30;99.90;;;;;;4979774;28;20832;-69
2023/10/28 06:43:15;;;;;;;7.63;6.75;;;9.30;99.90;;;;;;4996324;28;20042;-68
2023/10/28 06:45:43;;;;;;;21.45;13.10;;;9.30;99.90;;;;;;4988390;28;20043;-68
2023/10/28 06:48:10;;;;;;;22.73;15.15;;;9.30;99.90;;;;;;4987303;28;20049;-68
2023/10/28 06:50:37;;;;;;;22.08;13.55;;;9.40;99.90;;;;;;4985101;28;20046;-68
2023/10/28 06:53:05;;;;;;;19.60;14.05;;;9.40;99.90;;;;;;4998338;28;20033;-67
2023/10/28 06:55:33;;;;;;;19.83;14.48;;;9.50;99.90;;;;;;4984664;28;20140;-67
2023/10/28 06:58:00;;;;;;;24.60;17.67;;;9.50;99.90;;;;;;4995382;28;20728;-69
2023/10/28 07:00:28;;;;;;;14.05;10.07;;;9.60;99.90;;;;;;4994634;28;20050;-70
2023/10/28 07:02:56;;;;;;;27.23;15.90;;;9.60;99.90;;;;;;4987424;28;20953;-69
2023/10/28 07:05:26;;;;;;;22.70;14.32;;;9.70;99.90;;;;;;4987366;28;20046;-68
2023/10/28 07:07:56;;;;;;;61.00;36.90;;;9.70;99.90;;;;;;4988986;28;20699;-69
2023/10/28 07:10:23;;;;;;;32.08;21.08;;;9.80;99.90;;;;;;4988515;28;20723;-68
2023/10/28 07:12:50;;;;;;;32.30;21.67;;;9.80;99.90;;;;;;4994380;28;20559;-69
2023/10/28 07:15:17;;;;;;;21.55;15.98;;;9.90;99.90;;;;;;4992962;28;20068;-69
2023/10/28 07:17:44;;;;;;;13.07;11.48;;;9.90;99.90;;;;;;4993528;28;20641;-69
2023/10/28 07:20:11;;;;;;;16.55;10.98;;;9.90;99.90;;;;;;4987258;28;20134;-69
2023/10/28 07:22:38;;;;;;;12.93;11.25;;;9.90;99.90;;;;;;4990790;28;20128;-68
2023/10/28 07:25:06;;;;;;;13.30;10.75;;;9.80;99.90;;;;;;4987607;28;20048;-67
2023/10/28 07:27:33;;;;;;;15.82;11.38;;;9.80;99.90;;;;;;4990423;28;20615;-71
2023/10/28 07:30:00;;;;;;;12.10;10.77;;;9.80;99.90;;;;;;4992177;28;20931;-70
2023/10/28 07:32:27;;;;;;;11.63;10.55;;;9.70;99.90;;;;;;4987498;28;20038;-69
2023/10/28 07:34:54;;;;;;;12.93;8.02;;;9.70;99.90;;;;;;4995139;28;20143;-70
2023/10/28 07:37:21;;;;;;;12.77;7.57;;;9.70;99.90;;;;;;4988656;28;20374;-70
2023/10/28 07:39:48;;;;;;;10.18;7.03;;;9.60;99.90;;;;;;4991624;28;20407;-69
2023/10/28 07:42:15;;;;;;;10.63;7.07;;;9.70;99.90;;;;;;4988014;28;20102;-69
2023/10/28 07:44:43;;;;;;;9.80;8.25;;;9.70;99.90;;;;;;4992233;28;20049;-69
2023/10/28 07:47:11;;;;;;;11.63;6.80;;;9.80;99.90;;;;;;4988006;28;20046;-69
2023/10/28 07:49:38;;;;;;;10.60;7.00;;;9.80;99.90;;;;;;4987742;28;20057;-69
2023/10/28 07:52:05;;;;;;;8.02;6.68;;;9.90;99.90;;;;;;4993750;28;20044;-68
2023/10/28 07:54:32;;;;;;;8.00;6.40;;;10.00;99.90;;;;;;4993172;28;20053;-68
2023/10/28 07:56:59;;;;;;;12.85;7.47;;;10.00;99.90;;;;;;4995570;28;20042;-68
2023/10/28 07:59:26;;;;;;;7.30;6.65;;;9.90;99.90;;;;;;4997788;28;20749;-69
2023/10/28 08:01:53;;;;;;;7.60;6.38;;;9.90;99.90;;;;;;4989604;28;20052;-69
2023/10/28 08:04:20;;;;;;;6.88;6.25;;;10.00;99.90;;;;;;5000748;28;20129;-68
2023/10/28 08:06:47;;;;;;;8.38;6.88;;;10.00;99.90;;;;;;4989508;28;20766;-68
2023/10/28 08:09:14;;;;;;;17.38;9.90;;;10.10;99.90;;;;;;4996384;28;20053;-69
2023/10/28 08:11:41;;;;;;;10.52;7.85;;;10.10;99.90;;;;;;4988552;28;20060;-69
2023/10/28 08:14:08;;;;;;;9.07;7.13;;;10.20;99.90;;;;;;4994897;28;20060;-68
2023/10/28 08:16:35;;;;;;;7.28;6.68;;;10.20;99.90;;;;;;4987706;28;20671;-68
2023/10/28 08:19:03;;;;;;;9.70;8.13;;;10.30;99.90;;;;;;4986561;28;20053;-68
2023/10/28 08:21:31;;;;;;;9.52;8.63;;;10.30;99.90;;;;;;4990812;28;20526;-66
2023/10/28 08:23:58;;;;;;;8.48;7.80;;;10.40;99.90;;;;;;4994081;28;20049;-68
2023/10/28 08:26:26;;;;;;;11.48;8.55;;;10.30;99.90;;;;;;4991160;28;20046;-67
2023/10/28 08:28:53;;;;;;;7.93;7.13;;;10.30;99.90;;;;;;4987052;28;20038;-67
2023/10/28 08:31:20;;;;;;;8.80;7.80;;;10.40;99.90;;;;;;4993472;28;20045;-68
2023/10/28 08:33:50;;;;;;;8.18;7.65;;;10.40;99.90;;;;;;4990391;28;20049;-68
2023/10/28 08:36:17;;;;;;;7.45;6.97;;;10.50;99.90;;;;;;4994075;28;20096;-68
2023/10/28 08:38:47;;;;;;;7.40;6.78;;;10.50;99.90;;;;;;4992229;28;20041;-67
2023/10/28 08:41:21;;;;;;;8.38;7.78;;;10.40;99.90;;;;;;4990635;28;20034;-68
2023/10/28 08:43:50;;;;;;;;;;;10.50;99.90;;;;;;4995948;28;20050;-67
2023/10/28 08:46:17;;;;;;;9.57;8.68;;;10.60;99.90;;;;;;4991296;28;19932;-68
2023/10/28 08:48:44;;;;;;;9.30;7.95;;;10.60;99.90;;;;;;4989716;28;20046;-67
2023/10/28 08:51:14;;;;;;;7.57;6.90;;;10.60;99.90;;;;;;4991894;28;20041;-68
2023/10/28 08:53:45;;;;;;;7.47;6.75;;;10.50;99.90;;;;;;4988004;28;20073;-68
2023/10/28 08:56:19;;;;;;;7.75;6.63;;;10.50;99.90;;;;;;4988710;28;20045;-67
2023/10/28 08:58:50;;;;;;;7.05;6.35;;;10.40;99.90;;;;;;4989415;28;20050;-69
2023/10/28 09:01:22;;;;;;;6.05;5.45;;;10.40;99.90;;;;;;4995192;28;20049;-67
2023/10/28 09:04:08;;;;;;;7.18;5.78;;;10.30;99.90;;;;;;4988077;28;20589;-70
2023/10/28 09:06:35;;;;;;;;;;;10.30;99.90;;;;;;4987284;28;20033;-70
2023/10/28 09:09:12;;;;;;;9.80;5.40;;;10.20;99.90;;;;;;4990233;28;19936;-66
2023/10/28 09:11:41;;;;;;;7.50;4.53;;;10.20;99.90;;;;;;4986288;28;20095;-67
2023/10/28 09:14:09;;;;;;;6.63;4.78;;;10.10;99.90;;;;;;4995885;28;20091;-69
2023/10/28 09:16:36;;;;;;;5.93;5.25;;;10.10;99.90;;;;;;4987243;28;20053;-69
2023/10/28 09:19:04;;;;;;;7.47;5.60;;;10.10;99.90;;;;;;5009638;28;20104;-69
2023/10/28 09:21:31;;;;;;;7.50;5.78;;;10.20;99.90;;;;;;4984814;28;20037;-68
2023/10/28 09:24:02;;;;;;;4.82;4.50;;;10.20;99.90;;;;;;4986717;28;20046;-69
2023/10/28 09:26:30;;;;;;;5.57;4.93;;;10.20;99.90;;;;;;4986728;28;20054;-67
2023/10/28 09:28:58;;;;;;;5.63;5.22;;;10.40;99.90;;;;;;4989215;28;20103;-68
2023/10/28 09:31:26;;;;;;;4.50;4.10;;;10.50;99.90;;;;;;4996254;28;20124;-67
2023/10/28 09:33:54;;;;;;;5.88;4.07;;;10.50;99.90;;;;;;4989814;28;20115;-67
2023/10/28 09:36:21;;;;;;;8.10;5.38;;;10.40;99.90;;;;;;4995646;28;20719;-67
2023/10/28 09:38:50;;;;;;;6.00;4.18;;;10.50;99.90;;;;;;4985244;28;20134;-68
2023/10/28 09:41:19;;;;;;;5.45;4.18;;;10.50;99.90;;;;;;4988912;28;20507;-68
2023/10/28 09:43:46;;;;;;;4.65;4.35;;;10.60;99.90;;;;;;4987505;28;20390;-68
2023/10/28 09:46:18;;;;;;;5.60;4.95;;;10.70;99.90;;;;;;4991538;28;20046;-68
2023/10/28 09:48:48;;;;;;;7.15;4.75;;;10.80;99.90;;;;;;4946527;28;1072362;-68
2023/10/28 09:51:22;;;;;;;5.32;4.82;;;10.80;99.90;;;;;;4988357;28;20069;-69
2023/10/28 09:54:00;;;;;;;5.30;4.80;;;10.90;99.90;;;;;;4989865;28;20718;-69
2023/10/28 09:56:34;;;;;;;6.93;5.38;;;10.90;99.90;;;;;;4983967;28;20052;-68
2023/10/28 09:59:10;;;;;;;;;;;11.00;99.90;;;;;;4989538;28;20041;-68
2023/10/28 10:01:45;;;;;;;4.30;4.00;;;11.10;99.90;;;;;;4992234;28;19964;-67
2023/10/28 10:04:35;;;;;;;7.55;4.60;;;11.10;99.90;;;;;;5012741;28;20057;-68
2023/10/28 10:07:02;;;;;;;5.57;4.15;;;11.10;99.90;;;;;;5009265;28;20056;-67
2023/10/28 10:09:40;;;;;;;4.75;4.45;;;11.10;99.90;;;;;;4989288;28;20379;-68
2023/10/28 10:12:07;;;;;;;4.53;4.20;;;11.10;99.90;;;;;;4990557;28;20657;-69
2023/10/28 10:14:39;;;;;;;4.28;3.90;;;11.00;99.90;;;;;;4988318;28;20045;-68
2023/10/28 10:17:29;;;;;;;5.18;4.78;;;11.10;99.90;;;;;;4989952;28;20877;-70
2023/10/28 10:19:59;;;;;;;4.88;3.95;;;11.00;99.90;;;;;;4990070;28;20050;-69
2023/10/28 10:22:29;;;;;;;5.03;4.15;;;11.00;99.90;;;;;;4992097;28;20112;-71
2023/10/28 10:24:57;;;;;;;4.70;4.30;;;11.00;99.90;;;;;;4986655;28;20050;-68
2023/10/28 10:27:34;;;;;;;5.88;4.03;;;11.10;99.90;;;;;;4989423;28;20124;-68
2023/10/28 10:30:08;;;;;;;4.57;4.18;;;11.20;99.90;;;;;;4985437;28;20056;-68
2023/10/28 10:32:48;;;;;;;4.65;4.28;;;11.10;99.90;;;;;;4986337;28;20061;-67
2023/10/28 10:35:30;;;;;;;4.72;4.30;;;11.10;99.90;;;;;;4987892;28;20446;-67
2023/10/28 10:38:04;;;;;;;6.70;4.03;;;11.10;99.90;;;;;;4986675;28;20046;-69
2023/10/28 10:40:33;;;;;;;3.80;3.50;;;11.00;99.90;;;;;;4984017;28;20103;-68
2023/10/28 10:43:10;;;;;;;7.25;3.70;;;11.10;99.90;;;;;;4981537;28;20065;-69
2023/10/28 10:45:37;;;;;;;3.65;3.40;;;11.00;99.90;;;;;;4984898;28;20083;-68
2023/10/28 10:48:07;;;;;;;3.08;2.88;;;10.90;99.90;;;;;;4984254;28;20049;-69
2023/10/28 10:50:35;;;;;;;7.00;3.30;;;10.90;99.90;;;;;;4989937;28;20774;-69
2023/10/28 10:53:03;;;;;;;4.13;2.92;;;10.80;99.90;;;;;;4986662;28;20072;-69
2023/10/28 10:55:31;;;;;;;4.95;3.25;;;10.90;99.90;;;;;;4986287;28;20045;-68
2023/10/28 10:57:59;;;;;;;6.18;3.60;;;10.80;99.90;;;;;;4984336;28;20042;-70
2023/10/28 11:00:26;;;;;;;4.15;2.85;;;10.80;99.90;;;;;;4987143;28;20053;-69
2023/10/28 11:02:57;;;;;;;3.17;2.88;;;10.80;99.90;;;;;;4987601;28;20037;-68
2023/10/28 11:05:30;;;;;;;6.57;4.00;;;10.70;99.90;;;;;;4985606;28;20141;-69
2023/10/28 11:07:58;;;;;;;7.93;4.40;;;10.70;99.90;;;;;;4984240;28;20048;-67
2023/10/28 11:10:25;;;;;;;5.13;3.15;;;10.80;99.90;;;;;;4985642;28;20124;-68
2023/10/28 11:12:52;;;;;;;3.13;2.92;;;10.70;99.90;;;;;;4980380;28;20054;-68
2023/10/28 11:15:21;;;;;;;3.33;2.95;;;10.70;99.90;;;;;;4983727;28;20049;-69
2023/10/28 11:17:52;;;;;;;6.15;3.08;;;10.60;99.90;;;;;;4985340;28;20716;-68
2023/10/28 11:20:20;;;;;;;3.22;2.92;;;10.60;99.90;;;;;;4986200;28;20143;-70
2023/10/28 11:22:48;;;;;;;4.72;3.15;;;10.70;99.90;;;;;;4987198;28;20717;-67
2023/10/28 11:25:15;;;;;;;4.05;3.00;;;10.70;99.90;;;;;;4985643;28;20132;-68
2023/10/28 11:27:42;;;;;;;2.63;2.42;;;10.70;99.90;;;;;;4986643;28;20045;-68
2023/10/28 11:30:10;;;;;;;4.57;3.40;;;10.60;99.90;;;;;;4984825;28;20106;-69
2023/10/28 11:32:41;;;;;;;4.72;4.18;;;10.60;99.90;;;;;;4986239;28;20583;-68
2023/10/28 11:35:10;;;;;;;4.22;3.80;;;10.60;99.90;;;;;;4983604;28;20153;-68
2023/10/28 11:37:39;;;;;;;7.55;5.00;;;10.60;99.90;;;;;;4984010;28;20081;-68
2023/10/28 11:40:09;;;;;;;9.15;4.70;;;10.60;99.90;;;;;;4981310;28;20046;-68
2023/10/28 11:42:37;;;;;;;3.80;3.50;;;10.60;99.90;;;;;;4983291;28;20049;-68
2023/10/28 11:45:09;;;;;;;8.68;4.20;;;10.50;99.90;;;;;;4978721;28;21726;-67
2023/10/28 11:47:36;;;;;;;8.93;4.82;;;10.60;99.90;;;;;;4982469;28;20049;-69
2023/10/28 11:50:03;;;;;;;4.10;3.70;;;10.60;99.90;;;;;;4979464;28;20038;-70
2023/10/28 11:52:35;;;;;;;11.25;10.10;;;10.50;99.90;;;;;;4979986;28;20089;-69
2023/10/28 11:55:05;;;;;;;9.25;6.45;;;10.60;99.90;;;;;;4982734;28;20046;-68
2023/10/28 11:57:32;;;;;;;5.82;5.10;;;10.60;99.90;;;;;;4982995;28;20054;-68
2023/10/28 11:59:59;;;;;;;5.55;4.72;;;10.60;99.90;;;;;;4980447;28;20688;-70
2023/10/28 12:02:26;;;;;;;6.85;4.50;;;10.60;99.90;;;;;;4983275;28;20046;-68
2023/10/28 12:04:53;;;;;;;5.30;4.65;;;10.60;99.90;;;;;;4981616;28;20096;-68
2023/10/28 12:07:20;;;;;;;7.47;6.78;;;10.60;99.90;;;;;;4980012;28;20136;-67
2023/10/28 12:09:47;;;;;;;7.22;4.90;;;10.60;99.90;;;;;;4983593;28;20429;-67
2023/10/28 12:12:14;;;;;;;8.35;6.07;;;10.60;99.90;;;;;;5012205;28;20077;-70
2023/10/28 12:14:48;;;;;;;5.88;5.35;;;10.60;99.90;;;;;;4983984;28;20676;-69
2023/10/28 12:17:15;;;;;;;5.90;5.40;;;10.70;99.90;;;;;;4981011;28;20042;-68
2023/10/28 12:19:42;;;;;;;5.35;4.85;;;10.60;99.90;;;;;;4981392;28;20042;-68
2023/10/28 12:22:09;;;;;;;7.50;6.80;;;10.60;99.90;;;;;;4980562;28;20042;-69
2023/10/28 12:24:36;;;;;;;9.85;5.72;;;10.60;99.90;;;;;;4980712;28;20042;-70
2023/10/28 12:27:03;;;;;;;5.15;4.18;;;10.80;99.90;;;;;;4982622;28;20697;-68
2023/10/28 12:29:30;;;;;;;5.75;4.30;;;10.70;99.90;;;;;;4985148;28;20045;-70
2023/10/28 12:31:57;;;;;;;4.55;4.15;;;10.70;99.90;;;;;;4979292;28;20058;-69
2023/10/28 12:34:24;;;;;;;4.78;4.38;;;10.80;99.90;;;;;;4986007;28;20034;-70
2023/10/28 12:36:51;;;;;;;7.35;5.03;;;10.80;99.90;;;;;;4979012;28;20050;-69
2023/10/28 12:39:20;;;;;;;5.82;4.57;;;10.90;99.90;;;;;;4981083;28;20042;-68
2023/10/28 12:41:47;;;;;;;5.78;5.13;;;10.90;99.90;;;;;;4981081;28;20132;-68
2023/10/28 12:44:14;;;;;;;5.22;4.68;;;10.90;99.90;;;;;;4988931;28;21151;-68